Terminal Aerodrome Forecast
Issued by NWS Bismarck, ND

Home | Current Version | Previous Version | Text Only | Print | Product List | Glossary Off
Versions: 1 2 3 4 5 6 7 8 9 10 11 12 13 14 15 16

000
FTUS43 KBIS 221138 CCA
TAFISN
TAF COR
KISN 221138Z 2212/2312 01008KT P6SM BKN004
     FM221500 01009KT P6SM BKN008
     FM221700 03009KT P6SM BKN020
     FM222000 04008KT P6SM BKN035
     FM230500 08010KT P6SM BKN025=

USA.gov is the U.S. government's official web portal to all federal, state and local government web resources and services.